Terminal Aerodrome Forecast
Issued by NWS

Home | Current Version | Previous Version | Text Only | Print | Product List | Glossary On
Versions: 1 2 3 4 5 6 7 8 9 10 11 12 13 14 15
000
FTUS43 KICT 211100
TAFRSL
TAF
KRSL 211120Z 2112/2212 19016G23KT P6SM SCT100 BKN150
     FM211500 20015G22KT P6SM FEW060 SCT250
     FM220200 18014KT P6SM VCTS BKN100CB=

USA.gov is the U.S. government's official web portal to all federal, state and local government web resources and services.